Observations for LAWRENCE MUNICIPAL, MA (LWM)

KLWM 220954Z AUTO 00000KT 10SM CLR 03/M05 A3034 RMK AO2 SLP274 T00281050
KLWM 220854Z AUTO 21003KT 10SM CLR 03/M05 A3033 RMK AO2 SLP270 T00281050 50001  
KLWM 220754Z AUTO 00000KT 10SM CLR 03/M05 A3033 RMK AO2 SLP271 T00281050
KLWM 220654Z AUTO 16003KT 10SM CLR 04/M05 A3033 RMK AO2 SLP270 T00391050
KLWM 220554Z AUTO 00000KT 10SM CLR 05/M07 A3033 RMK AO2 SLP270 T00501067 10122 20039 50005  
KLWM 220454Z AUTO 00000KT 10SM CLR 06/M07 A3033 RMK AO2 SLP271 T00561067 401610028  
KLWM 220354Z AUTO 00000KT 10SM CLR 08/M07 A3032 RMK AO2 SLP268 T00831072
KLWM 220254Z AUTO 36003KT 10SM CLR 08/M07 A3031 RMK AO2 SLP264 T00831067 51019  
KLWM 220154Z 36007KT 10SM CLR 10/M07 A3030 RMK AO2 SLP259 T01001067 
KLWM 220054Z 34006KT 10SM CLR 11/M07 A3028 RMK AO2 SLP253 T01111072 
KLWM 212354Z 35007KT 10SM CLR 12/M07 A3025 RMK AO2 SLP245 T01221072 10161 20122 53018   
KLWM 212254Z 33010KT 10SM CLR 14/M08 A3022 RMK AO2 SLP233 T01391078 
KLWM 212154Z 30011KT 10SM CLR 15/M07 A3021 RMK AO2 SLP229 T01501072 
KLWM 212054Z 32012G19KT 10SM CLR 16/M07 A3020 RMK AO2 SLP226 T01561072 55010
KLWM 211954Z 32012G20KT 10SM CLR 16/M06 A3019 RMK AO2 SLP225 T01561056  
KLWM 211854Z 30012G20KT 10SM CLR 15/M06 A3020 RMK AO2 SLP227 T01501061  
KLWM 211754Z 34011G17KT 10SM CLR 14/M05 A3023 RMK AO2 SLP237 T01441050 10150 20067 58021
KLWM 211654Z 30012G18KT 10SM CLR 13/M05 A3025 RMK AO2 SLP244 T01331050  
KLWM 211554Z 28012G19KT 240V320 10SM CLR 12/M04 A3027 RMK AO2 SLP252 T01221039  
KLWM 211454Z 32009G17KT 10SM CLR 11/M04 A3029 RMK AO2 SLP257 T01111044 58008
KLWM 211354Z 30009KT 10SM CLR 10/M03 A3030 RMK AO2 SLP260 T01001028 
KLWM 211254Z 32010KT 10SM CLR 08/M03 A3031 RMK AO2 SLP263 T00781033 
KLWM 211154Z 29009KT 10SM CLR 06/M02 A3031 RMK AO2 SLP265 T00611022 10061 20028 51010   
KLWM 211054Z 27004KT 10SM CLR 04/M03 A3031 RMK AO2 SLP264 T00391028 
KLWM 210954Z AUTO 28004KT 10SM CLR 03/M03 A3029 RMK AO2 SLP259 T00281033